Paris, France
Current Conditions -  °F | °C
As of 5:00 AM on Thursday 29 Jan 2015 (Local Time) from LFPB Reporting Station
Overcast Overcast  
Wind Chill: 34°   Ceiling: 1800
Heat Index: 41°   Visibility: 6mi
Dew Point: 36°   Wind: 13mph
Humidity: 81%   Direction: 250°WSW
Pressure: 29.56"   Gusts: NA
Location:  48.86°N, 2.35°E
Report Text: LFPB 290400Z AUTO 25011KT 9999 BKN018 OVC045 05/02 Q1001
Loading
Personal Weather Stations






























Interactive Weather Map New forecast layout! Learn more

10-Day Weather Forecast

Advertisements
Track Severe Weather on mobile